sensor_id;sensor_type;location;lat;lon;timestamp;P1;durP1;ratioP1;P2;durP2;ratioP2
52342;SDS011;38277;51.972;4.624;2023-02-26T00:02:08;7.2;;;3.1;;
52342;SDS011;38277;51.972;4.624;2023-02-26T00:11:12;6.9;;;2.6;;
52342;SDS011;38277;51.972;4.624;2023-02-26T00:20:15;9.1;;;4.0;;
52342;SDS011;38277;51.972;4.624;2023-02-26T00:35:20;10.4;;;3.2;;
52342;SDS011;38277;51.972;4.624;2023-02-26T00:38:21;6.7;;;2.8;;
52342;SDS011;38277;51.972;4.624;2023-02-26T00:47:43;5.6;;;2.8;;
52342;SDS011;38277;51.972;4.624;2023-02-26T00:50:25;10.3;;;3.0;;
52342;SDS011;38277;51.972;4.624;2023-02-26T00:59:28;7.9;;;3.2;;
52342;SDS011;38277;51.972;4.624;2023-02-26T01:08:41;11.4;;;3.0;;
52342;SDS011;38277;51.972;4.624;2023-02-26T01:23:37;5.1;;;2.0;;
52342;SDS011;38277;51.972;4.624;2023-02-26T01:26:37;7.6;;;2.5;;
52342;SDS011;38277;51.972;4.624;2023-02-26T01:35:49;4.3;;;1.9;;
52342;SDS011;38277;51.972;4.624;2023-02-26T01:48:04;10.0;;;2.4;;
52342;SDS011;38277;51.972;4.624;2023-02-26T01:56:49;3.3;;;1.8;;
52342;SDS011;38277;51.972;4.624;2023-02-26T02:02:50;7.6;;;2.4;;
52342;SDS011;38277;51.972;4.624;2023-02-26T02:12:07;6.2;;;1.9;;
52342;SDS011;38277;51.972;4.624;2023-02-26T02:22:44;6.1;;;1.7;;
52342;SDS011;38277;51.972;4.624;2023-02-26T02:31:44;2.3;;;1.3;;
52342;SDS011;38277;51.972;4.624;2023-02-26T02:39:13;4.5;;;1.3;;
52342;SDS011;38277;51.972;4.624;2023-02-26T02:48:07;4.2;;;1.5;;
52342;SDS011;38277;51.972;4.624;2023-02-26T02:57:14;3.2;;;1.2;;
52342;SDS011;38277;51.972;4.624;2023-02-26T03:09:13;4.6;;;1.7;;
52342;SDS011;38277;51.972;4.624;2023-02-26T03:15:15;5.9;;;1.5;;
52342;SDS011;38277;51.972;4.624;2023-02-26T03:24:20;5.5;;;1.7;;
52342;SDS011;38277;51.972;4.624;2023-02-26T03:33:51;3.6;;;1.4;;
52342;SDS011;38277;51.972;4.624;2023-02-26T03:45:29;5.4;;;1.4;;
52342;SDS011;38277;51.972;4.624;2023-02-26T03:51:27;6.3;;;1.8;;
52342;SDS011;38277;51.972;4.624;2023-02-26T04:00:31;4.9;;;1.5;;
52342;SDS011;38277;51.972;4.624;2023-02-26T04:09:34;3.6;;;1.3;;
52342;SDS011;38277;51.972;4.624;2023-02-26T04:21:38;5.8;;;1.3;;
52342;SDS011;38277;51.972;4.624;2023-02-26T04:27:40;6.0;;;1.8;;
52342;SDS011;38277;51.972;4.624;2023-02-26T04:39:44;3.4;;;1.2;;
52342;SDS011;38277;51.972;4.624;2023-02-26T04:45:47;4.0;;;1.7;;
52342;SDS011;38277;51.972;4.624;2023-02-26T04:54:49;3.6;;;1.4;;
52342;SDS011;38277;51.972;4.624;2023-02-26T05:03:52;3.2;;;1.3;;
52342;SDS011;38277;51.972;4.624;2023-02-26T05:12:56;2.9;;;1.2;;
52342;SDS011;38277;51.972;4.624;2023-02-26T05:21:59;5.1;;;1.3;;
52342;SDS011;38277;51.972;4.624;2023-02-26T05:34:03;4.4;;;1.2;;
52342;SDS011;38277;51.972;4.624;2023-02-26T05:40:07;2.9;;;1.3;;
52342;SDS011;38277;51.972;4.624;2023-02-26T05:49:08;2.1;;;1.2;;
52342;SDS011;38277;51.972;4.624;2023-02-26T05:58:12;2.4;;;1.1;;
52342;SDS011;38277;51.972;4.624;2023-02-26T06:07:15;5.5;;;1.4;;
52342;SDS011;38277;51.972;4.624;2023-02-26T06:18:08;2.4;;;1.3;;
52342;SDS011;38277;51.972;4.624;2023-02-26T06:27:11;2.1;;;1.2;;
52342;SDS011;38277;51.972;4.624;2023-02-26T06:36:15;4.0;;;1.5;;
52342;SDS011;38277;51.972;4.624;2023-02-26T06:48:19;5.6;;;2.0;;
52342;SDS011;38277;51.972;4.624;2023-02-26T06:54:21;4.6;;;1.6;;
52342;SDS011;38277;51.972;4.624;2023-02-26T07:03:24;3.9;;;1.2;;
52342;SDS011;38277;51.972;4.624;2023-02-26T07:12:27;2.0;;;1.3;;
52342;SDS011;38277;51.972;4.624;2023-02-26T07:30:33;2.5;;;1.3;;
52342;SDS011;38277;51.972;4.624;2023-02-26T07:39:37;4.3;;;1.7;;
52342;SDS011;38277;51.972;4.624;2023-02-26T07:48:40;4.6;;;1.3;;
52342;SDS011;38277;51.972;4.624;2023-02-26T08:00:44;3.3;;;1.2;;
52342;SDS011;38277;51.972;4.624;2023-02-26T08:06:47;6.4;;;1.3;;
52342;SDS011;38277;51.972;4.624;2023-02-26T08:15:49;5.2;;;1.7;;
52342;SDS011;38277;51.972;4.624;2023-02-26T08:24:52;4.2;;;1.6;;
52342;SDS011;38277;51.972;4.624;2023-02-26T08:39:57;3.9;;;1.5;;
52342;SDS011;38277;51.972;4.624;2023-02-26T08:42:58;7.4;;;1.9;;
52342;SDS011;38277;51.972;4.624;2023-02-26T08:52:02;4.1;;;1.9;;
52342;SDS011;38277;51.972;4.624;2023-02-26T09:01:05;5.8;;;1.6;;
52342;SDS011;38277;51.972;4.624;2023-02-26T09:13:09;4.4;;;1.1;;
52342;SDS011;38277;51.972;4.624;2023-02-26T09:19:12;2.9;;;1.6;;
52342;SDS011;38277;51.972;4.624;2023-02-26T09:28:14;9.9;;;1.5;;
52342;SDS011;38277;51.972;4.624;2023-02-26T09:37:18;4.4;;;1.2;;
52342;SDS011;38277;51.972;4.624;2023-02-26T09:52:29;5.1;;;1.1;;
52342;SDS011;38277;51.972;4.624;2023-02-26T09:55:25;3.2;;;1.2;;
52342;SDS011;38277;51.972;4.624;2023-02-26T10:05:03;3.3;;;1.8;;
52342;SDS011;38277;51.972;4.624;2023-02-26T10:13:47;2.7;;;1.1;;
52342;SDS011;38277;51.972;4.624;2023-02-26T10:25:42;3.8;;;1.2;;
52342;SDS011;38277;51.972;4.624;2023-02-26T10:31:37;3.4;;;1.1;;
52342;SDS011;38277;51.972;4.624;2023-02-26T10:40:58;2.5;;;0.8;;
52342;SDS011;38277;51.972;4.624;2023-02-26T10:50:14;3.4;;;1.4;;
52342;SDS011;38277;51.972;4.624;2023-02-26T10:58:46;3.2;;;1.3;;
52342;SDS011;38277;51.972;4.624;2023-02-26T11:07:49;2.9;;;1.2;;
52342;SDS011;38277;51.972;4.624;2023-02-26T11:13:51;2.7;;;0.9;;
52342;SDS011;38277;51.972;4.624;2023-02-26T11:22:56;3.6;;;1.4;;
52342;SDS011;38277;51.972;4.624;2023-02-26T11:28:56;5.0;;;1.2;;
52342;SDS011;38277;51.972;4.624;2023-02-26T11:36:54;1.8;;;1.0;;
52342;SDS011;38277;51.972;4.624;2023-02-26T11:42:57;5.6;;;1.6;;
52342;SDS011;38277;51.972;4.624;2023-02-26T11:52:15;3.1;;;1.2;;
52342;SDS011;38277;51.972;4.624;2023-02-26T12:01:02;2.7;;;0.9;;
52342;SDS011;38277;51.972;4.624;2023-02-26T12:10:08;2.7;;;0.9;;
52342;SDS011;38277;51.972;4.624;2023-02-26T12:20:00;4.9;;;1.1;;
52342;SDS011;38277;51.972;4.624;2023-02-26T12:30:23;1.8;;;1.0;;
52342;SDS011;38277;51.972;4.624;2023-02-26T12:40:48;6.8;;;1.2;;
52342;SDS011;38277;51.972;4.624;2023-02-26T12:54:28;1.6;;;0.8;;
52342;SDS011;38277;51.972;4.624;2023-02-26T13:02:04;2.9;;;1.0;;
52342;SDS011;38277;51.972;4.624;2023-02-26T13:11:43;1.9;;;0.9;;
52342;SDS011;38277;51.972;4.624;2023-02-26T13:20:30;2.6;;;1.0;;
52342;SDS011;38277;51.972;4.624;2023-02-26T13:26:08;3.9;;;1.1;;
52342;SDS011;38277;51.972;4.624;2023-02-26T13:31:34;2.4;;;1.0;;
52342;SDS011;38277;51.972;4.624;2023-02-26T13:41:04;3.7;;;0.9;;
52342;SDS011;38277;51.972;4.624;2023-02-26T13:51:10;3.5;;;1.0;;
52342;SDS011;38277;51.972;4.624;2023-02-26T14:04:53;3.8;;;1.1;;
52342;SDS011;38277;51.972;4.624;2023-02-26T14:08:17;4.6;;;1.3;;
52342;SDS011;38277;51.972;4.624;2023-02-26T14:16:49;4.0;;;1.2;;
52342;SDS011;38277;51.972;4.624;2023-02-26T14:25:52;2.4;;;0.8;;
52342;SDS011;38277;51.972;4.624;2023-02-26T14:34:56;3.9;;;1.4;;
52342;SDS011;38277;51.972;4.624;2023-02-26T14:44:02;4.9;;;1.4;;
52342;SDS011;38277;51.972;4.624;2023-02-26T14:54:08;3.2;;;1.3;;
52342;SDS011;38277;51.972;4.624;2023-02-26T15:04:12;7.6;;;3.3;;
52342;SDS011;38277;51.972;4.624;2023-02-26T15:18:05;3.2;;;1.3;;
52342;SDS011;38277;51.972;4.624;2023-02-26T15:23:59;2.1;;;0.9;;
52342;SDS011;38277;51.972;4.624;2023-02-26T15:29:14;2.2;;;1.0;;
52342;SDS011;38277;51.972;4.624;2023-02-26T15:38:18;3.8;;;1.6;;
52342;SDS011;38277;51.972;4.624;2023-02-26T15:47:20;4.0;;;1.1;;
52342;SDS011;38277;51.972;4.624;2023-02-26T15:56:24;2.3;;;0.9;;
52342;SDS011;38277;51.972;4.624;2023-02-26T16:05:27;4.9;;;1.1;;
52342;SDS011;38277;51.972;4.624;2023-02-26T16:14:30;4.7;;;1.4;;
52342;SDS011;38277;51.972;4.624;2023-02-26T16:26:37;3.0;;;1.2;;
52342;SDS011;38277;51.972;4.624;2023-02-26T16:32:36;5.9;;;1.6;;
52342;SDS011;38277;51.972;4.624;2023-02-26T16:41:39;5.8;;;1.4;;
52342;SDS011;38277;51.972;4.624;2023-02-26T16:52:35;10.3;;;2.5;;
52342;SDS011;38277;51.972;4.624;2023-02-26T17:01:40;4.0;;;1.7;;
52342;SDS011;38277;51.972;4.624;2023-02-26T17:10:43;8.0;;;1.4;;
52342;SDS011;38277;51.972;4.624;2023-02-26T17:19:45;8.2;;;2.5;;
52342;SDS011;38277;51.972;4.624;2023-02-26T17:28:48;8.6;;;2.4;;
52342;SDS011;38277;51.972;4.624;2023-02-26T17:43:53;4.1;;;1.4;;
52342;SDS011;38277;51.972;4.624;2023-02-26T17:46:54;2.7;;;1.6;;
52342;SDS011;38277;51.972;4.624;2023-02-26T17:55:57;4.0;;;1.8;;
52342;SDS011;38277;51.972;4.624;2023-02-26T18:05:00;5.3;;;2.5;;
52342;SDS011;38277;51.972;4.624;2023-02-26T18:14:04;2.9;;;1.4;;
52342;SDS011;38277;51.972;4.624;2023-02-26T18:23:07;6.4;;;2.6;;
52342;SDS011;38277;51.972;4.624;2023-02-26T18:32:11;4.9;;;2.1;;
52342;SDS011;38277;51.972;4.624;2023-02-26T18:41:13;5.0;;;1.7;;
52342;SDS011;38277;51.972;4.624;2023-02-26T18:53:17;5.3;;;2.0;;
52342;SDS011;38277;51.972;4.624;2023-02-26T18:59:19;4.9;;;2.1;;
52342;SDS011;38277;51.972;4.624;2023-02-26T19:08:22;7.0;;;2.3;;
52342;SDS011;38277;51.972;4.624;2023-02-26T19:17:25;5.2;;;2.0;;
52342;SDS011;38277;51.972;4.624;2023-02-26T19:26:29;5.0;;;1.8;;
52342;SDS011;38277;51.972;4.624;2023-02-26T19:35:32;3.6;;;1.9;;
52342;SDS011;38277;51.972;4.624;2023-02-26T19:44:35;6.7;;;2.2;;
52342;SDS011;38277;51.972;4.624;2023-02-26T19:53:38;7.6;;;1.7;;
52342;SDS011;38277;51.972;4.624;2023-02-26T20:05:42;6.0;;;1.6;;
52342;SDS011;38277;51.972;4.624;2023-02-26T20:11:45;5.9;;;2.4;;
52342;SDS011;38277;51.972;4.624;2023-02-26T20:20:47;4.7;;;1.9;;
52342;SDS011;38277;51.972;4.624;2023-02-26T20:29:50;5.1;;;2.0;;
52342;SDS011;38277;51.972;4.624;2023-02-26T20:38:54;5.4;;;1.9;;
52342;SDS011;38277;51.972;4.624;2023-02-26T20:47:57;5.9;;;2.7;;
52342;SDS011;38277;51.972;4.624;2023-02-26T21:00:01;5.1;;;1.6;;
52342;SDS011;38277;51.972;4.624;2023-02-26T21:06:03;5.6;;;2.3;;
52342;SDS011;38277;51.972;4.624;2023-02-26T21:18:07;3.7;;;2.2;;
52342;SDS011;38277;51.972;4.624;2023-02-26T21:24:10;7.3;;;2.7;;
52342;SDS011;38277;51.972;4.624;2023-02-26T21:33:12;6.8;;;2.7;;
52342;SDS011;38277;51.972;4.624;2023-02-26T21:42:15;6.8;;;2.7;;
52342;SDS011;38277;51.972;4.624;2023-02-26T21:51:19;5.7;;;2.7;;
52342;SDS011;38277;51.972;4.624;2023-02-26T22:00:22;6.1;;;2.5;;
52342;SDS011;38277;51.972;4.624;2023-02-26T22:09:25;6.2;;;2.5;;
52342;SDS011;38277;51.972;4.624;2023-02-26T22:18:28;7.9;;;2.8;;
52342;SDS011;38277;51.972;4.624;2023-02-26T22:30:32;3.8;;;1.8;;
52342;SDS011;38277;51.972;4.624;2023-02-26T22:42:36;5.5;;;2.9;;
52342;SDS011;38277;51.972;4.624;2023-02-26T22:45:37;5.3;;;2.0;;
52342;SDS011;38277;51.972;4.624;2023-02-26T22:57:41;5.2;;;2.0;;
52342;SDS011;38277;51.972;4.624;2023-02-26T23:03:45;5.7;;;2.4;;
52342;SDS011;38277;51.972;4.624;2023-02-26T23:12:47;7.5;;;2.5;;
52342;SDS011;38277;51.972;4.624;2023-02-26T23:21:50;3.8;;;1.8;;
52342;SDS011;38277;51.972;4.624;2023-02-26T23:30:53;8.4;;;2.5;;
52342;SDS011;38277;51.972;4.624;2023-02-26T23:42:57;5.2;;;2.0;;
52342;SDS011;38277;51.972;4.624;2023-02-26T23:58:02;4.0;;;1.8;;
